Terminal Aerodrome Forecast
Issued by NWS North Platte, NE

Home | Current Version | Previous Version | Text Only | Print | Product List | Glossary On
Versions: 1 2 3 4 5 6 7 8 9 10 11 12 13 14 15 16 17 18
000
FTUS43 KLBF 310023 AAA
TAFVTN
TAF AMD
KVTN 310023Z 3100/3124 18015KT P6SM OVC030
     FM311100 21011KT P6SM SCT150
     FM311400 28010KT P6SM SCT150 BKN200
     FM311600 34012KT P6SM BKN150
     FM312000 35007KT P6SM BKN120=

USA.gov is the U.S. government's official web portal to all federal, state and local government web resources and services.